Weather at Mangalore Airport

Public forecast

Using degrees Celsius for public forecast. Weather courtesy of forecast.io.

Closest aviation weather report (METAR) to Mangalore Airport

Closest report is Melbourne International Airport, 49.9 nm (92.4 km) SSW. Retrieved 2020/10/20 02:30 UTC (8 minutes ago):

YMML 200230Z 23006KT 170V270 9999 FEW030 BKN032 16/08 Q1018 NOSIG

Closest aviation forecast (TAF) to Mangalore Airport

Closest forecast is Melbourne International Airport, 49.9 nm (92.4 km) SSW. Retrieved 2020-10-20 00:00 UTC (3 hours ago):

TAF YMML 192321Z 2000/2106 15010KT 9999 SCT035 FM201400 28005KT CAVOK FM201800 30005KT 9999 FEW010 SCT018 BECMG 2023/2100 18008KT CAVOK FM210300 18010KT 9999 SCT040 TEMPO 2019/2023 9999 BKN010